Time;durP1;ratioP1;P1;durP2;ratioP2;P2;SDS_P1;SDS_P2;PMS_P1;PMS_P2;Temp;Humidity;BMP_temperature;BMP_pressure;BME280_temperature;BME280_humidity;BME280_pressure;Samples;Min_cycle;Max_cycle;Signal;HPM_P1;HPM_P2
2022/11/18 00:01:15;;;;;;;2.87;1.35;;;;;;;2.94;100.00;98078.44;1670742;85;20941;-70
2022/11/18 00:03:42;;;;;;;2.08;1.15;;;;;;;2.98;100.00;98087.87;1669792;85;21000;-63
2022/11/18 00:06:12;;;;;;;2.37;1.22;;;;;;;2.97;100.00;98094.80;1647934;86;21159;-63
2022/11/18 00:08:39;;;;;;;2.72;1.20;;;;;;;3.11;100.00;98086.69;1648501;86;21612;-62
2022/11/18 00:14:17;;;;;;;3.00;1.27;;;;;;;3.12;100.00;98083.91;1647796;86;21490;-63
2022/11/18 00:16:27;;;;;;;2.00;1.20;;;;;;;3.11;100.00;98113.22;1691497;84;21044;-70
2022/11/18 00:18:54;;;;;;;3.42;1.37;;;;;;;3.16;100.00;98122.95;1691798;83;21805;-62
2022/11/18 00:21:22;;;;;;;1.87;1.10;;;;;;;3.24;100.00;98124.58;1691316;84;21039;-68
2022/11/18 00:23:50;;;;;;;2.20;0.88;;;;;;;3.36;100.00;98125.14;1675017;84;21143;-61
2022/11/18 00:26:17;;;;;;;3.05;1.72;;;;;;;3.31;100.00;98127.50;1644070;87;21498;-66
2022/11/18 00:28:44;;;;;;;2.98;1.52;;;;;;;3.37;100.00;98124.65;1670038;85;21506;-61
2022/11/18 00:31:13;;;;;;;2.12;1.05;;;;;;;3.31;100.00;98115.91;1643848;87;21976;-68
2022/11/18 00:33:40;;;;;;;2.35;1.45;;;;;;;3.38;100.00;98121.11;1653732;86;21026;-61
2022/11/18 00:36:10;;;;;;;2.45;1.12;;;;;;;3.39;100.00;98127.84;1663333;86;20952;-61
2022/11/18 00:38:37;;;;;;;2.40;1.37;;;;;;;3.43;100.00;98131.63;1662838;86;20983;-61
2022/11/18 00:41:10;;;;;;;2.77;1.50;;;;;;;3.46;100.00;98140.77;1663090;86;21157;-71
2022/11/18 00:43:37;;;;;;;5.20;2.80;;;;;;;3.44;100.00;98147.88;1683957;84;21144;-61
2022/11/18 00:46:07;;;;;;;3.47;1.92;;;;;;;3.33;100.00;98144.03;1686979;85;20928;-62
2022/11/18 00:48:36;;;;;;;3.98;2.80;;;;;;;3.37;100.00;98156.37;1691540;84;20912;-62
2022/11/18 00:51:16;;;;;;;4.85;3.25;;;;;;;3.36;100.00;98159.91;1686665;85;20992;-70
2022/11/18 00:53:43;;;;;;;5.33;3.70;;;;;;;3.46;100.00;98172.96;1686532;85;21509;-61
2022/11/18 00:56:10;;;;;;;6.30;4.40;;;;;;;3.50;100.00;98193.50;1691558;84;21270;-60
2022/11/18 00:58:38;;;;;;;7.00;4.20;;;;;;;3.51;100.00;98190.72;1687103;85;22356;-60
2022/11/18 01:01:06;;;;;;;5.72;4.15;;;;;;;3.43;100.00;98177.98;1686531;85;21498;-60
2022/11/18 01:03:33;;;;;;;6.10;4.20;;;;;;;3.51;100.00;98182.20;1692092;84;20990;-60
2022/11/18 01:06:01;;;;;;;7.25;4.20;;;;;;;3.57;100.00;98182.25;1704191;83;21580;-64
2022/11/18 01:08:28;;;;;;;7.42;4.90;;;;;;;3.57;100.00;98188.69;1703576;84;21105;-62
2022/11/18 01:13:17;;;;;;;5.75;4.03;;;;;;;3.57;100.00;98189.98;1703871;84;21497;-71
2022/11/18 01:13:27;;;;;;;6.47;4.20;;;;;;;3.60;100.00;98194.76;1704332;83;21082;-60
2022/11/18 01:15:55;;;;;;;6.78;5.17;;;;;;;3.58;100.00;98195.42;1676404;84;21069;-63
2022/11/18 01:18:26;;;;;;;6.03;4.37;;;;;;;3.62;100.00;98213.38;1646818;85;21143;-60
2022/11/18 01:20:53;;;;;;;5.42;4.40;;;;;;;3.63;100.00;98217.55;1647322;86;21245;-69
2022/11/18 01:23:21;;;;;;;5.85;4.42;;;;;;;3.62;100.00;98228.84;1667452;85;21805;-61
2022/11/18 01:25:49;;;;;;;6.25;4.62;;;;;;;3.61;100.00;98229.05;1669400;85;21505;-69
2022/11/18 01:28:17;;;;;;;7.75;5.97;;;;;;;3.60;100.00;98232.11;1669204;85;21431;-61
2022/11/18 01:30:44;;;;;;;7.87;5.35;;;;;;;3.57;100.00;98241.50;1670033;85;21066;-61
2022/11/18 01:33:12;;;;;;;8.75;6.20;;;;;;;3.58;100.00;98235.85;1684123;84;21157;-61
2022/11/18 01:35:43;;;;;;;9.10;6.53;;;;;;;3.56;100.00;98232.19;1669901;84;22282;-63
2022/11/18 01:38:12;;;;;;;10.30;7.50;;;;;;;3.58;100.00;98238.43;1673591;85;22323;-60
2022/11/18 01:40:39;;;;;;;8.83;7.42;;;;;;;3.57;100.00;98236.34;1651279;85;21047;-61
2022/11/18 01:43:14;;;;;;;10.00;7.92;;;;;;;3.47;100.00;98237.16;1672465;85;21085;-70
2022/11/18 01:45:42;;;;;;;8.88;7.40;;;;;;;3.49;100.00;98257.09;1629781;87;21792;-70
2022/11/18 01:48:27;;;;;;;11.35;8.15;;;;;;;3.47;100.00;98268.06;1661714;84;21558;-64
2022/11/18 01:50:59;;;;;;;10.60;7.90;;;;;;;3.48;100.00;98278.66;1661167;86;21531;-69
2022/11/18 01:53:31;;;;;;;10.03;7.15;;;;;;;3.43;100.00;98291.31;1663493;86;21172;-65
2022/11/18 01:56:01;;;;;;;9.18;7.05;;;;;;;3.30;100.00;98286.06;1664862;86;22270;-60
2022/11/18 01:58:33;;;;;;;10.95;8.68;;;;;;;3.23;100.00;98298.87;1664818;86;21857;-60
2022/11/18 02:01:00;;;;;;;;;;;;;;;3.23;100.00;98322.53;1666363;86;21027;-62
2022/11/18 02:03:27;;;;;;;10.32;8.28;;;;;;;3.08;100.00;98332.37;1664226;86;20219;-61
2022/11/18 02:05:54;;;;;;;10.38;8.55;;;;;;;3.19;100.00;98339.33;1657002;86;21569;-61
2022/11/18 02:08:21;;;;;;;14.30;10.00;;;;;;;3.12;100.00;98347.77;1656396;86;21041;-60
2022/11/18 02:10:48;;;;;;;12.50;8.93;;;;;;;3.21;100.00;98348.94;1642639;84;21270;-71
2022/11/18 02:13:15;;;;;;;11.63;9.03;;;;;;;3.17;100.00;98353.66;1660500;85;20976;-60
2022/11/18 02:16:03;;;;;;;10.85;8.60;;;;;;;3.14;100.00;98360.45;1634452;86;20932;-60
2022/11/18 02:18:59;;;;;;;12.47;9.35;;;;;;;3.21;100.00;98370.33;1667625;85;20991;-61
2022/11/18 02:21:47;;;;;;;13.00;11.03;;;;;;;3.31;100.00;98386.78;1674348;85;21081;-61
2022/11/18 09:44:54;;;;;;;12.87;11.47;;;;;;;2.25;100.00;99419.00;1811093;77;22772;-63
2022/11/18 09:47:30;;;;;;;15.67;13.07;;;;;;;2.40;100.00;99424.72;1721027;80;20932;-68
2022/11/18 09:50:01;;;;;;;18.95;14.60;;;;;;;2.40;100.00;99429.87;1780268;80;21212;-63
2022/11/18 09:52:45;;;;;;;20.57;16.63;;;;;;;2.48;100.00;99432.97;1779823;79;21514;-64
2022/11/18 09:55:14;;;;;;;23.18;18.20;;;;;;;2.33;100.00;99429.34;1775036;79;21496;-73
2022/11/18 09:57:50;;;;;;;27.48;20.40;;;;;;;2.27;100.00;99445.34;1780035;79;21002;-64
2022/11/18 10:00:23;;;;;;;29.60;22.32;;;;;;;2.38;100.00;99457.48;1777488;80;20876;-62
2022/11/18 10:02:58;;;;;;;27.02;20.90;;;;;;;2.50;100.00;99463.67;1771930;79;21166;-72
2022/11/18 10:05:28;;;;;;;30.60;23.35;;;;;;;2.56;100.00;99460.03;1777625;80;20978;-63
2022/11/18 10:08:26;;;;;;;30.02;21.95;;;;;;;2.56;100.00;99461.31;1783503;79;20974;-63
2022/11/18 10:11:01;;;;;;;29.18;21.62;;;;;;;2.52;100.00;99472.87;1774516;80;21076;-62
2022/11/18 10:13:43;;;;;;;30.02;22.05;;;;;;;2.58;100.00;99476.14;1774962;79;21070;-63
2022/11/18 10:16:38;;;;;;;26.95;20.17;;;;;;;2.53;100.00;99482.20;1771835;79;21257;-71
2022/11/18 10:19:38;;;;;;;22.40;18.17;;;;;;;2.43;100.00;99491.30;1774875;80;21049;-62
2022/11/18 10:22:17;;;;;;;26.62;19.62;;;;;;;2.32;100.00;99497.16;1779702;80;20965;-69
2022/11/18 10:24:56;;;;;;;26.68;22.20;;;;;;;2.26;100.00;99502.89;1755244;80;21051;-63
2022/11/18 10:27:39;;;;;;;26.45;20.88;;;;;;;2.19;100.00;99516.32;1766104;79;21090;-70
2022/11/18 10:30:22;;;;;;;31.15;24.20;;;;;;;2.25;100.00;99524.42;1775419;79;21385;-61
2022/11/18 10:33:02;;;;;;;30.62;23.55;;;;;;;2.25;100.00;99517.99;1779437;79;20936;-71
2022/11/18 10:35:37;;;;;;;26.55;20.60;;;;;;;2.28;100.00;99520.28;1775879;80;21327;-62
2022/11/18 10:38:17;;;;;;;29.70;22.90;;;;;;;2.25;100.00;99519.28;1769625;80;20935;-61
2022/11/18 10:40:58;;;;;;;30.72;23.00;;;;;;;2.10;100.00;99531.36;1773618;80;21569;-74
2022/11/18 10:43:54;;;;;;;32.20;23.47;;;;;;;2.08;100.00;99531.97;1768470;80;21207;-65
2022/11/18 10:46:38;;;;;;;29.02;22.75;;;;;;;2.10;100.00;99533.92;1763035;80;21502;-62
2022/11/18 10:49:15;;;;;;;29.35;23.00;;;;;;;2.00;100.00;99547.31;1759381;80;20987;-62
2022/11/18 10:51:46;;;;;;;28.80;21.95;;;;;;;2.09;100.00;99543.88;1766060;80;20999;-71
2022/11/18 10:54:21;;;;;;;26.70;20.17;;;;;;;2.17;100.00;99544.44;1761901;80;21075;-63
2022/11/18 10:57:22;;;;;;;29.52;21.80;;;;;;;2.18;100.00;99534.48;1764952;80;21883;-63
2022/11/18 10:59:51;;;;;;;26.60;21.40;;;;;;;2.21;100.00;99535.95;1753766;80;20932;-63
2022/11/18 11:02:24;;;;;;;27.40;22.42;;;;;;;2.26;100.00;99543.55;1768984;80;21007;-63
2022/11/18 11:04:51;;;;;;;26.90;21.07;;;;;;;2.35;100.00;99562.42;1764032;80;21041;-64
2022/11/18 11:07:36;;;;;;;25.08;20.37;;;;;;;2.49;100.00;99568.34;1770728;79;21487;-74
2022/11/18 11:10:09;;;;;;;27.80;21.00;;;;;;;2.52;100.00;99587.34;1747150;80;21317;-72
2022/11/18 11:12:47;;;;;;;25.60;20.05;;;;;;;2.47;100.00;99588.77;1761701;80;21157;-67
2022/11/18 11:15:18;;;;;;;23.27;18.50;;;;;;;2.38;100.00;99587.86;1761545;80;21411;-62
2022/11/18 11:18:41;;;;;;;23.27;18.17;;;;;;;2.32;100.00;99598.75;1763749;80;21831;-62
2022/11/18 11:20:31;;;;;;;22.13;18.27;;;;;;;2.27;100.00;99604.78;1747397;80;21985;-72
2022/11/18 11:22:58;;;;;;;25.17;18.95;;;;;;;2.16;100.00;99606.63;1757239;80;21267;-62
2022/11/18 11:25:42;;;;;;;26.95;20.40;;;;;;;2.13;100.00;99616.39;1767205;80;22226;-65
2022/11/18 11:28:37;;;;;;;19.42;16.60;;;;;;;2.04;100.00;99629.61;1744470;80;21913;-61
2022/11/18 11:31:29;;;;;;;20.60;16.90;;;;;;;2.03;100.00;99638.28;1748278;80;21011;-60
2022/11/18 11:34:05;;;;;;;22.62;18.15;;;;;;;1.87;100.00;99643.23;1774005;80;20988;-64
2022/11/18 11:36:47;;;;;;;21.27;15.58;;;;;;;1.76;100.00;99651.13;1774763;80;21217;-63
2022/11/18 11:39:41;;;;;;;19.77;16.32;;;;;;;1.66;100.00;99649.38;1774641;80;20881;-63
2022/11/18 11:42:28;;;;;;;20.68;17.02;;;;;;;1.62;100.00;99657.52;1774669;80;20972;-61
2022/11/18 11:45:28;;;;;;;21.15;16.57;;;;;;;1.35;100.00;99665.48;1774026;80;21038;-71
2022/11/18 11:48:29;;;;;;;21.20;18.27;;;;;;;1.28;100.00;99668.75;1774207;80;20996;-61
2022/11/18 11:51:08;;;;;;;20.50;17.32;;;;;;;1.38;100.00;99669.55;1774986;80;21176;-60
2022/11/18 11:54:02;;;;;;;20.80;17.45;;;;;;;1.39;100.00;99673.73;1774531;80;21008;-68
2022/11/18 11:56:43;;;;;;;29.20;21.33;;;;;;;1.43;100.00;99681.02;1774557;80;20932;-62
2022/11/18 11:59:57;;;;;;;24.37;19.17;;;;;;;1.46;100.00;99688.92;1774614;80;20975;-61
2022/11/18 12:03:03;;;;;;;20.97;17.37;;;;;;;1.37;100.00;99696.19;1773882;80;20996;-61
2022/11/18 12:05:38;;;;;;;21.60;16.93;;;;;;;1.34;100.00;99699.02;1774861;80;21227;-62
2022/11/18 12:08:24;;;;;;;22.07;17.70;;;;;;;1.36;100.00;99702.25;1773711;80;22305;-62
2022/11/18 12:11:29;;;;;;;22.15;17.50;;;;;;;1.37;100.00;99709.83;1770250;81;20991;-62
2022/11/18 12:14:28;;;;;;;35.50;26.75;;;;;;;1.46;100.00;99712.04;1771601;80;21542;-61
2022/11/18 12:17:03;;;;;;;20.97;16.95;;;;;;;1.46;100.00;99719.75;1744076;82;22373;-61
2022/11/18 12:19:30;;;;;;;18.98;15.70;;;;;;;1.43;100.00;99728.52;1743394;81;21219;-61
2022/11/18 12:22:04;;;;;;;21.37;16.30;;;;;;;1.40;100.00;99729.27;1743810;81;21497;-61
2022/11/18 12:24:38;;;;;;;17.65;14.68;;;;;;;1.39;100.00;99732.31;1720447;80;20947;-62
2022/11/18 12:27:26;;;;;;;21.48;16.95;;;;;;;1.38;100.00;99729.90;1774171;80;21532;-69
2022/11/18 12:29:58;;;;;;;20.40;16.42;;;;;;;1.33;100.00;99735.45;1770693;80;20989;-64
2022/11/18 12:32:42;;;;;;;22.60;18.37;;;;;;;1.38;100.00;99740.17;1751211;80;21242;-61
2022/11/18 12:35:28;;;;;;;24.25;18.92;;;;;;;1.36;100.00;99747.19;1743640;82;21078;-62
2022/11/18 12:37:57;;;;;;;22.17;17.82;;;;;;;1.35;100.00;99755.84;1743912;82;21010;-62
2022/11/18 12:40:44;;;;;;;19.42;15.20;;;;;;;1.40;100.00;99760.09;1745808;80;20892;-71
2022/11/18 12:43:49;;;;;;;23.05;17.42;;;;;;;1.42;100.00;99768.48;1757220;79;21062;-62
2022/11/18 12:46:40;;;;;;;22.15;18.75;;;;;;;1.39;100.00;99777.73;1743479;81;21123;-62
2022/11/18 12:49:28;;;;;;;20.80;17.92;;;;;;;1.34;100.00;99779.43;1759001;80;20987;-61
2022/11/18 12:51:59;;;;;;;20.62;17.07;;;;;;;1.30;100.00;99793.48;1773667;80;21692;-63
2022/11/18 12:54:44;;;;;;;25.82;20.57;;;;;;;1.18;100.00;99794.56;1773643;80;21428;-62
2022/11/18 12:57:28;;;;;;;21.37;17.35;;;;;;;1.09;100.00;99800.00;1743607;82;20964;-63
2022/11/18 12:59:55;;;;;;;24.60;20.62;;;;;;;1.00;100.00;99805.95;1743849;81;22027;-61
2022/11/18 13:02:28;;;;;;;20.77;18.30;;;;;;;1.12;100.00;99804.88;1743735;81;20940;-61
2022/11/18 13:05:12;;;;;;;17.90;15.95;;;;;;;1.08;100.00;99811.23;1743222;81;21536;-61
2022/11/18 13:10:50;;;;;;;21.95;19.17;;;;;;;1.02;100.00;99820.73;1771998;80;21376;-72
2022/11/18 13:13:31;;;;;;;24.82;19.85;;;;;;;0.94;100.00;99825.23;1762246;80;21144;-62
2022/11/18 13:18:52;;;;;;;23.50;19.25;;;;;;;0.95;100.00;99835.86;1774434;80;20207;-62
2022/11/18 13:24:16;;;;;;;27.17;20.52;;;;;;;0.90;100.00;99841.84;1774236;80;21000;-62
2022/11/18 13:26:46;;;;;;;21.05;18.00;;;;;;;0.89;100.00;99854.34;1743588;81;20983;-70
2022/11/18 13:29:31;;;;;;;23.25;18.60;;;;;;;0.88;100.00;99858.33;1763195;80;20889;-61
2022/11/18 13:32:29;;;;;;;24.47;20.57;;;;;;;0.87;100.00;99859.25;1755564;80;21087;-61
2022/11/18 13:34:58;;;;;;;24.02;19.60;;;;;;;0.94;100.00;99862.92;1742953;82;21085;-62
2022/11/18 13:37:28;;;;;;;26.95;20.52;;;;;;;0.95;100.00;99865.85;1763889;81;21478;-71
2022/11/18 13:39:55;;;;;;;23.07;19.12;;;;;;;0.93;100.00;99868.53;1765137;81;21233;-61
2022/11/18 13:42:30;;;;;;;22.58;18.73;;;;;;;0.89;100.00;99867.64;1764567;81;21066;-62
2022/11/18 13:45:00;;;;;;;23.02;18.87;;;;;;;0.88;100.00;99866.03;1765121;80;21462;-63
2022/11/18 13:47:44;;;;;;;28.05;20.55;;;;;;;0.84;100.00;99859.53;1764864;81;21007;-63
2022/11/18 13:50:35;;;;;;;22.85;17.65;;;;;;;0.87;100.00;99863.09;1765311;81;21070;-62
2022/11/18 13:53:29;;;;;;;25.02;16.95;;;;;;;0.86;100.00;99862.77;1734478;82;22283;-64
2022/11/18 13:56:05;;;;;;;20.27;17.05;;;;;;;0.86;100.00;99862.77;1776408;79;20884;-62
2022/11/18 13:58:39;;;;;;;22.90;18.15;;;;;;;0.88;100.00;99863.46;1737927;81;20991;-71
2022/11/18 14:01:27;;;;;;;19.67;16.27;;;;;;;0.85;100.00;99860.67;1737979;82;21054;-62
2022/11/18 14:04:03;;;;;;;23.95;18.77;;;;;;;0.88;100.00;99871.16;1738198;82;21494;-62
2022/11/18 14:06:38;;;;;;;23.02;18.80;;;;;;;0.86;100.00;99866.14;1747386;80;22346;-62
2022/11/18 14:09:25;;;;;;;25.75;21.33;;;;;;;0.83;100.00;99879.22;1756981;80;20865;-64
2022/11/18 14:12:15;;;;;;;21.68;18.23;;;;;;;0.85;100.00;99880.39;1756282;80;21063;-63
2022/11/18 14:14:43;;;;;;;25.85;20.15;;;;;;;0.88;100.00;99892.97;1768560;80;21485;-62
2022/11/18 14:17:24;;;;;;;21.00;17.40;;;;;;;0.88;100.00;99886.55;1767683;80;20928;-70
2022/11/18 14:19:55;;;;;;;21.27;17.20;;;;;;;0.87;100.00;99896.45;1737855;82;21228;-62
2022/11/18 14:22:25;;;;;;;22.48;18.77;;;;;;;0.87;100.00;99896.02;1737948;81;21047;-64
2022/11/18 14:24:59;;;;;;;20.92;18.17;;;;;;;0.87;100.00;99902.87;1764387;80;21512;-67
2022/11/18 14:27:49;;;;;;;21.07;16.93;;;;;;;0.86;100.00;99907.20;1765340;81;21092;-62
2022/11/18 14:30:36;;;;;;;20.45;16.57;;;;;;;0.95;100.00;99907.72;1765511;81;21056;-62
2022/11/18 14:33:20;;;;;;;22.07;17.60;;;;;;;1.00;100.00;99903.48;1765290;81;21240;-69
2022/11/18 14:35:54;;;;;;;21.07;18.23;;;;;;;1.05;100.00;99906.45;1765232;81;21337;-62
2022/11/18 14:38:44;;;;;;;21.85;17.62;;;;;;;1.07;100.00;99905.05;1753777;79;21048;-63
2022/11/18 14:41:13;;;;;;;22.02;18.65;;;;;;;1.09;100.00;99912.95;1765307;79;21034;-63
2022/11/18 14:43:42;;;;;;;20.57;15.78;;;;;;;1.05;100.00;99921.05;1764995;81;20956;-63
2022/11/18 14:46:16;;;;;;;21.05;17.48;;;;;;;1.07;100.00;99928.16;1765373;79;21533;-62
2022/11/18 14:48:43;;;;;;;21.42;16.67;;;;;;;1.04;100.00;99926.66;1740143;81;20975;-68
2022/11/18 14:51:12;;;;;;;21.97;18.02;;;;;;;1.09;100.00;99924.50;1765631;81;21139;-62
2022/11/18 14:53:40;;;;;;;20.90;15.95;;;;;;;1.16;100.00;99925.61;1767223;81;20957;-62
2022/11/18 14:56:13;;;;;;;18.55;14.93;;;;;;;1.14;100.00;99924.94;1767585;79;21480;-64
2022/11/18 14:58:41;;;;;;;21.55;16.55;;;;;;;1.08;100.00;99940.84;1767680;80;21271;-68
2022/11/18 15:01:11;;;;;;;23.80;16.12;;;;;;;1.09;100.00;99941.66;1767467;79;20951;-63
2022/11/18 15:03:40;;;;;;;18.40;15.13;;;;;;;1.09;100.00;99946.31;1787060;79;20952;-66
2022/11/18 15:06:18;;;;;;;18.17;15.03;;;;;;;1.07;100.00;99953.35;1795012;79;21751;-63
2022/11/18 15:08:46;;;;;;;17.87;14.13;;;;;;;1.08;100.00;99958.81;1777252;79;21009;-70
2022/11/18 15:11:15;;;;;;;18.05;14.75;;;;;;;1.12;100.00;99965.31;1767918;81;21829;-63
2022/11/18 15:13:42;;;;;;;17.60;14.33;;;;;;;1.19;100.00;99960.48;1766821;81;21045;-64
2022/11/18 15:16:19;;;;;;;19.05;14.50;;;;;;;1.18;100.00;99965.29;1767802;81;21079;-63
2022/11/18 15:18:49;;;;;;;17.70;14.70;;;;;;;1.15;100.00;99974.52;1767643;81;20939;-63
2022/11/18 15:21:18;;;;;;;16.93;14.13;;;;;;;1.11;100.00;99974.44;1779070;79;21529;-68
2022/11/18 15:23:45;;;;;;;18.25;14.55;;;;;;;1.14;100.00;99972.43;1779377;79;21210;-65
2022/11/18 15:26:28;;;;;;;17.67;15.15;;;;;;;1.21;100.00;99976.55;1785197;79;21003;-66
2022/11/18 15:28:56;;;;;;;15.72;13.18;;;;;;;1.24;100.00;99989.61;1776886;79;21124;-62
2022/11/18 15:31:24;;;;;;;17.75;14.23;;;;;;;1.25;100.00;99988.66;1785765;79;20984;-64
2022/11/18 15:33:51;;;;;;;16.30;13.53;;;;;;;1.25;100.00;99993.36;1764610;79;21075;-63
2022/11/18 15:36:22;;;;;;;17.40;14.58;;;;;;;1.29;100.00;100001.58;1759044;81;21399;-70
2022/11/18 15:38:49;;;;;;;15.80;13.43;;;;;;;1.32;100.00;100006.47;1759156;80;20996;-63
2022/11/18 15:41:24;;;;;;;16.97;14.00;;;;;;;1.33;100.00;100000.41;1758771;81;20964;-64
2022/11/18 15:43:51;;;;;;;17.45;13.55;;;;;;;1.36;100.00;100004.78;1763371;79;21079;-62
2022/11/18 15:46:20;;;;;;;15.13;12.18;;;;;;;1.33;100.00;99999.94;1775616;79;21022;-69
2022/11/18 15:48:47;;;;;;;18.20;14.05;;;;;;;1.39;100.00;100017.84;1743884;80;21070;-63
2022/11/18 15:51:16;;;;;;;17.25;13.93;;;;;;;1.42;100.00;100018.88;1754393;80;20936;-64
2022/11/18 15:53:44;;;;;;;15.00;12.30;;;;;;;1.46;100.00;100022.81;1775976;80;20920;-62
2022/11/18 15:56:22;;;;;;;16.42;13.50;;;;;;;1.49;100.00;100019.18;1776288;80;21008;-66
2022/11/18 15:59:12;;;;;;;16.52;13.75;;;;;;;1.43;100.00;100019.22;1775707;80;21359;-63
2022/11/18 16:01:44;;;;;;;15.75;12.50;;;;;;;1.38;100.00;100027.79;1776326;80;21106;-62
2022/11/18 16:04:14;;;;;;;17.35;13.08;;;;;;;1.38;100.00;100032.92;1775107;80;20927;-64
2022/11/18 16:06:46;;;;;;;16.30;12.60;;;;;;;1.39;100.00;100032.78;1776041;80;21473;-62
2022/11/18 16:09:11;;;;;;;16.48;13.15;;;;;;;1.38;100.00;100034.20;1774871;80;21501;-62
2022/11/18 16:14:25;;;;;;;13.93;11.18;;;;;;;1.38;100.00;100023.94;1775837;79;21787;-62
2022/11/18 16:16:54;;;;;;;15.75;12.13;;;;;;;1.33;100.00;100035.08;1808268;79;21513;-63
2022/11/18 16:19:24;;;;;;;14.15;10.78;;;;;;;1.31;100.00;100033.09;1808279;79;20976;-63
2022/11/18 16:21:54;;;;;;;12.75;10.58;;;;;;;1.34;100.00;100034.13;1807749;79;20928;-66
2022/11/18 16:24:27;;;;;;;15.00;11.53;;;;;;;1.39;100.00;100028.93;1783544;79;21019;-63
2022/11/18 16:26:54;;;;;;;13.45;11.20;;;;;;;1.44;100.00;100029.38;1776311;80;21314;-63
2022/11/18 16:29:22;;;;;;;17.05;13.43;;;;;;;1.43;100.00;100043.14;1776020;80;20987;-70
2022/11/18 16:31:51;;;;;;;14.60;11.20;;;;;;;1.39;100.00;100041.77;1771769;80;20955;-71
2022/11/18 16:34:25;;;;;;;11.80;10.48;;;;;;;1.34;100.00;100040.55;1782261;79;20938;-64
2022/11/18 16:36:55;;;;;;;12.37;10.28;;;;;;;1.31;100.00;100045.94;1799298;79;21053;-64
2022/11/18 16:39:24;;;;;;;14.20;10.98;;;;;;;1.31;100.00;100045.94;1796684;79;21151;-70
2022/11/18 16:41:53;;;;;;;14.43;12.28;;;;;;;1.32;100.00;100044.51;1796065;79;20968;-69
2022/11/18 16:44:20;;;;;;;13.45;10.95;;;;;;;1.32;100.00;100046.27;1807471;79;22249;-63
2022/11/18 16:46:53;;;;;;;12.28;10.50;;;;;;;1.27;100.00;100058.69;1796406;79;20969;-63
2022/11/18 16:49:25;;;;;;;13.83;10.63;;;;;;;1.20;100.00;100055.34;1796596;79;20972;-63
2022/11/18 16:51:54;;;;;;;15.40;12.88;;;;;;;1.18;100.00;100055.95;1796006;79;21218;-64
2022/11/18 16:54:28;;;;;;;17.07;11.60;;;;;;;1.17;100.00;100058.63;1796703;79;21067;-62
2022/11/18 16:56:56;;;;;;;13.75;11.50;;;;;;;1.20;100.00;100055.34;1792235;79;21664;-60
2022/11/18 16:59:29;;;;;;;16.05;12.45;;;;;;;1.21;100.00;100049.28;1796710;79;21517;-71
2022/11/18 17:01:57;;;;;;;16.07;12.10;;;;;;;1.20;100.00;100041.22;1782828;79;21157;-61
2022/11/18 17:04:26;;;;;;;14.78;11.65;;;;;;;1.19;100.00;100042.16;1765311;81;21907;-60
2022/11/18 17:06:54;;;;;;;16.02;13.48;;;;;;;1.19;100.00;100061.42;1764887;79;20917;-61
2022/11/18 17:09:24;;;;;;;14.47;11.55;;;;;;;1.13;100.00;100064.95;1750133;81;20892;-71
2022/11/18 17:11:53;;;;;;;15.10;12.75;;;;;;;1.05;100.00;100077.14;1743500;82;22746;-61
2022/11/18 17:14:21;;;;;;;18.05;15.43;;;;;;;1.06;100.00;100076.67;1743747;80;21619;-61
2022/11/18 17:16:49;;;;;;;16.93;13.05;;;;;;;1.05;100.00;100086.60;1743949;80;21500;-62
2022/11/18 17:19:18;;;;;;;15.88;12.82;;;;;;;1.06;100.00;100094.19;1754902;80;21523;-70
2022/11/18 17:21:47;;;;;;;16.10;12.28;;;;;;;1.02;100.00;100077.86;1754300;80;22521;-62
2022/11/18 17:24:19;;;;;;;15.35;12.15;;;;;;;0.97;100.00;100066.22;1764775;79;20884;-61
2022/11/18 17:26:47;;;;;;;;;;;;;;;0.97;100.00;100066.70;1767975;80;20976;-60
2022/11/18 17:29:14;;;;;;;16.37;12.35;;;;;;;0.91;100.00;100062.05;1772371;80;21108;-62
2022/11/18 17:31:43;;;;;;;16.12;12.73;;;;;;;0.83;100.00;100067.00;1770058;80;21058;-61
2022/11/18 17:34:13;;;;;;;15.05;12.58;;;;;;;0.80;100.00;100076.26;1772440;80;21018;-62
2022/11/18 17:36:41;;;;;;;15.58;12.43;;;;;;;0.78;100.00;100078.93;1772995;80;21454;-62
2022/11/18 17:39:09;;;;;;;17.27;14.68;;;;;;;0.81;100.00;100083.81;1774548;80;20920;-69
2022/11/18 17:44:24;;;;;;;19.70;15.43;;;;;;;0.88;100.00;100079.01;1769137;80;21051;-62
2022/11/18 17:46:52;;;;;;;19.40;14.95;;;;;;;0.92;100.00;100074.78;1743078;80;20952;-70
2022/11/18 17:49:21;;;;;;;15.98;13.15;;;;;;;0.95;100.00;100086.08;1771952;79;20975;-63
2022/11/18 17:51:53;;;;;;;19.95;16.45;;;;;;;0.93;100.00;100087.14;1768909;80;21060;-64
2022/11/18 17:54:19;;;;;;;24.27;17.20;;;;;;;0.92;100.00;100095.78;1774916;80;21119;-62
2022/11/18 17:56:46;;;;;;;18.75;15.05;;;;;;;0.90;100.00;100101.49;1774925;80;20896;-69
2022/11/18 17:59:16;;;;;;;19.73;14.47;;;;;;;0.88;100.00;100099.54;1768881;80;20913;-63
2022/11/18 18:01:44;;;;;;;24.05;18.45;;;;;;;0.80;100.00;100089.09;1762937;79;21058;-63
2022/11/18 18:04:13;;;;;;;29.23;19.73;;;;;;;0.73;100.00;100099.83;1749516;81;21028;-65
2022/11/18 18:06:41;;;;;;;45.88;27.13;;;;;;;0.68;100.00;100110.94;1768041;81;21177;-64
2022/11/18 18:09:09;;;;;;;31.33;25.45;;;;;;;0.62;100.00;100102.44;1767102;81;20952;-64
2022/11/18 18:11:37;;;;;;;26.40;18.67;;;;;;;0.64;100.00;100115.13;1764346;81;21623;-63
2022/11/18 18:14:14;;;;;;;24.25;19.37;;;;;;;0.66;100.00;100118.41;1761733;81;20956;-61
2022/11/18 18:16:47;;;;;;;26.07;20.50;;;;;;;0.67;100.00;100118.27;1762180;81;20976;-62
2022/11/18 18:19:17;;;;;;;25.37;19.25;;;;;;;0.65;100.00;100107.81;1760683;80;21253;-69
2022/11/18 18:21:44;;;;;;;31.65;23.90;;;;;;;0.59;100.00;100106.53;1764852;81;22604;-63
2022/11/18 18:24:15;;;;;;;23.02;18.65;;;;;;;0.60;100.00;100118.41;1768233;81;21003;-61
2022/11/18 18:26:43;;;;;;;20.95;16.12;;;;;;;0.62;100.00;100125.53;1768133;81;20968;-61
2022/11/18 18:29:11;;;;;;;24.57;18.62;;;;;;;0.62;100.00;100126.81;1767374;81;21470;-61
2022/11/18 18:31:38;;;;;;;29.77;22.85;;;;;;;0.58;100.00;100134.41;1767845;81;21855;-61
2022/11/18 18:34:05;;;;;;;33.23;22.65;;;;;;;0.56;100.00;100143.15;1767800;81;20871;-62
2022/11/18 18:36:33;;;;;;;26.27;20.08;;;;;;;0.57;100.00;100149.89;1767908;80;21555;-61
2022/11/18 18:39:01;;;;;;;27.98;19.62;;;;;;;0.54;100.00;100150.16;1766716;81;21480;-69
2022/11/18 18:41:30;;;;;;;23.02;17.85;;;;;;;0.54;100.00;100145.84;1767996;81;21143;-62
2022/11/18 18:43:59;;;;;;;21.77;17.17;;;;;;;0.55;100.00;100134.64;1767838;81;21579;-63
2022/11/18 18:46:33;;;;;;;20.43;15.70;;;;;;;0.54;100.00;100138.16;1771575;80;21087;-62
2022/11/18 18:49:07;;;;;;;19.17;15.40;;;;;;;0.52;100.00;100145.14;1773939;80;21487;-65
2022/11/18 18:51:38;;;;;;;26.12;20.92;;;;;;;0.48;100.00;100148.87;1774713;80;20987;-63
2022/11/18 18:54:06;;;;;;;23.52;19.10;;;;;;;0.44;100.00;100143.65;1774840;80;21050;-61
2022/11/18 18:56:33;;;;;;;21.93;16.97;;;;;;;0.44;100.00;100148.30;1753433;80;21202;-67
2022/11/18 18:59:01;;;;;;;17.50;14.20;;;;;;;0.41;100.00;100155.42;1742940;81;21004;-63
2022/11/18 19:01:30;;;;;;;18.05;14.23;;;;;;;0.46;100.00;100164.88;1747283;80;21126;-61
2022/11/18 19:04:00;;;;;;;17.00;13.28;;;;;;;0.44;100.00;100156.47;1743931;82;21042;-62
2022/11/18 19:06:30;;;;;;;20.85;16.05;;;;;;;0.42;100.00;100159.64;1743898;81;21027;-61
2022/11/18 19:08:59;;;;;;;18.02;14.45;;;;;;;0.41;100.00;100164.40;1743042;81;21301;-62
2022/11/18 19:14:14;;;;;;;17.48;14.10;;;;;;;0.46;100.00;100173.84;1764046;80;20951;-63
2022/11/18 19:16:41;;;;;;;18.40;15.10;;;;;;;0.42;100.00;100175.02;1752993;80;20999;-71
2022/11/18 19:19:10;;;;;;;30.55;24.23;;;;;;;0.42;100.00;100180.16;1749498;80;21134;-64
2022/11/18 19:21:37;;;;;;;20.80;16.23;;;;;;;0.42;100.00;100174.55;1760208;80;21149;-64
2022/11/18 19:24:07;;;;;;;31.17;23.30;;;;;;;0.44;100.00;100176.98;1759180;80;21004;-63
2022/11/18 19:26:35;;;;;;;26.25;19.75;;;;;;;0.44;100.00;100175.70;1762112;80;21608;-72
2022/11/18 19:29:02;;;;;;;18.57;15.15;;;;;;;0.47;100.00;100166.49;1757024;80;21011;-63